Time;durP1;ratioP1;P1;durP2;ratioP2;P2;SDS_P1;SDS_P2;PMS_P1;PMS_P2;Temp;Humidity;BMP_temperature;BMP_pressure;BME280_temperature;BME280_humidity;BME280_pressure;Samples;Min_cycle;Max_cycle;Signal;HPM_P1;HPM_P2
2024/02/05 00:02:17;;;;;;;23.15;5.18;;;;;;;;;;5054550;28;20079;-79
2024/02/05 00:04:44;;;;;;;32.65;8.52;;;;;;;;;;5055790;28;20025;-79
2024/02/05 00:07:11;;;;;;;36.28;7.22;;;;;;;;;;5054011;28;20028;-77
2024/02/05 00:09:37;;;;;;;27.63;7.35;;;;;;;;;;5054237;28;20083;-77
2024/02/05 00:12:03;;;;;;;31.08;6.20;;;;;;;;;;5053589;28;20427;-77
2024/02/05 00:14:29;;;;;;;21.63;5.85;;;;;;;;;;5054124;28;20033;-77
2024/02/05 00:16:55;;;;;;;28.15;7.22;;;;;;;;;;5053941;28;20021;-78
2024/02/05 00:19:21;;;;;;;36.83;7.43;;;;;;;;;;5054187;28;20033;-76
2024/02/05 00:21:47;;;;;;;33.05;8.00;;;;;;;;;;5055374;28;20032;-76
2024/02/05 00:24:13;;;;;;;38.22;7.82;;;;;;;;;;5054110;28;20025;-78
2024/02/05 00:26:39;;;;;;;34.08;8.15;;;;;;;;;;5054337;28;20032;-77
2024/02/05 00:29:08;;;;;;;30.63;7.10;;;;;;;;;;5053957;28;20489;-78
2024/02/05 00:31:34;;;;;;;32.08;6.68;;;;;;;;;;5054246;28;20043;-77
2024/02/05 00:34:00;;;;;;;29.80;7.78;;;;;;;;;;5053757;28;20036;-77
2024/02/05 00:36:26;;;;;;;38.75;10.00;;;;;;;;;;5054075;28;20388;-78
2024/02/05 00:38:52;;;;;;;28.00;7.72;;;;;;;;;;5055783;28;20025;-77
2024/02/05 00:41:18;;;;;;;31.42;6.63;;;;;;;;;;5053676;28;20021;-78
2024/02/05 00:43:44;;;;;;;36.63;10.00;;;;;;;;;;5054166;28;20362;-77
2024/02/05 00:46:20;;;;;;;33.05;8.20;;;;;;;;;;5053442;28;20044;-77
2024/02/05 00:48:46;;;;;;;31.52;7.15;;;;;;;;;;5053734;28;20023;-77
2024/02/05 00:51:12;;;;;;;34.80;7.55;;;;;;;;;;5053866;28;20063;-76
2024/02/05 00:53:38;;;;;;;27.77;7.10;;;;;;;;;;5053607;28;20044;-77
2024/02/05 00:56:04;;;;;;;36.47;8.30;;;;;;;;;;5053033;28;20025;-77
2024/02/05 00:58:30;;;;;;;38.22;9.95;;;;;;;;;;5053562;28;20033;-78
2024/02/05 01:00:57;;;;;;;36.95;7.65;;;;;;;;;;5054743;28;20107;-76
2024/02/05 01:03:23;;;;;;;33.78;7.75;;;;;;;;;;5053341;28;20021;-78
2024/02/05 01:05:49;;;;;;;37.03;7.80;;;;;;;;;;5053150;28;20028;-77
2024/02/05 01:08:15;;;;;;;36.70;7.57;;;;;;;;;;5052888;28;20021;-78
2024/02/05 01:10:41;;;;;;;27.15;6.97;;;;;;;;;;5052997;28;20037;-77
2024/02/05 01:13:07;;;;;;;30.55;7.45;;;;;;;;;;5053864;28;20077;-77
2024/02/05 01:15:34;;;;;;;31.05;8.88;;;;;;;;;;5052856;28;20021;-78
2024/02/05 01:18:00;;;;;;;32.58;8.38;;;;;;;;;;5052590;28;20017;-77
2024/02/05 01:20:26;;;;;;;34.78;9.50;;;;;;;;;;5052592;28;20037;-77
2024/02/05 01:22:53;;;;;;;30.73;6.60;;;;;;;;;;5053852;28;20028;-77
2024/02/05 01:25:19;;;;;;;36.63;8.70;;;;;;;;;;5053428;28;20018;-79
2024/02/05 01:27:45;;;;;;;30.98;6.55;;;;;;;;;;5052643;28;20021;-80
2024/02/05 01:30:11;;;;;;;26.38;7.15;;;;;;;;;;5052395;28;20098;-78
2024/02/05 01:32:37;;;;;;;26.98;6.47;;;;;;;;;;5052431;28;20021;-77
2024/02/05 01:35:03;;;;;;;21.83;5.80;;;;;;;;;;5052265;28;20053;-77
2024/02/05 01:37:29;;;;;;;30.75;6.65;;;;;;;;;;5052472;28;20025;-79
2024/02/05 01:39:55;;;;;;;28.27;7.63;;;;;;;;;;5052402;28;20078;-78
2024/02/05 01:42:23;;;;;;;41.00;8.32;;;;;;;;;;5052163;28;20415;-78
2024/02/05 01:44:49;;;;;;;36.70;7.28;;;;;;;;;;5052267;28;20021;-77
2024/02/05 01:47:16;;;;;;;33.40;8.63;;;;;;;;;;5051970;28;20044;-78
2024/02/05 01:49:42;;;;;;;38.33;9.02;;;;;;;;;;5053779;28;20053;-78
2024/02/05 01:52:10;;;;;;;28.80;6.28;;;;;;;;;;5051901;28;20024;-77
2024/02/05 01:54:36;;;;;;;28.92;7.25;;;;;;;;;;5052078;28;20029;-77
2024/02/05 01:57:03;;;;;;;32.38;6.80;;;;;;;;;;5050766;28;20052;-77
2024/02/05 01:59:30;;;;;;;31.85;8.07;;;;;;;;;;5051828;28;20029;-77
2024/02/05 02:01:56;;;;;;;35.88;7.38;;;;;;;;;;5051998;28;20021;-79
2024/02/05 02:04:22;;;;;;;30.80;7.90;;;;;;;;;;5051693;28;20025;-76
2024/02/05 02:06:48;;;;;;;37.03;7.35;;;;;;;;;;5053082;28;20086;-77
2024/02/05 02:09:16;;;;;;;30.42;8.98;;;;;;;;;;5051533;28;20036;-77
2024/02/05 02:11:42;;;;;;;28.83;7.38;;;;;;;;;;5051455;28;20079;-77
2024/02/05 02:14:08;;;;;;;40.80;8.57;;;;;;;;;;5051449;28;20028;-77
2024/02/05 02:16:35;;;;;;;42.15;8.35;;;;;;;;;;5052991;28;20025;-77
2024/02/05 02:19:04;;;;;;;55.05;10.23;;;;;;;;;;5052738;28;20071;-77
2024/02/05 02:21:31;;;;;;;37.67;10.10;;;;;;;;;;5052941;28;20112;-78
2024/02/05 02:23:57;;;;;;;42.83;9.63;;;;;;;;;;5051417;28;20029;-77
2024/02/05 02:26:23;;;;;;;39.67;10.80;;;;;;;;;;5051243;28;20059;-77
2024/02/05 02:28:49;;;;;;;35.53;8.30;;;;;;;;;;5052746;28;20029;-77
2024/02/05 02:31:17;;;;;;;42.70;8.95;;;;;;;;;;5051231;28;20029;-77
2024/02/05 02:33:49;;;;;;;36.72;8.77;;;;;;;;;;5051324;28;20430;-78
2024/02/05 02:36:18;;;;;;;34.53;7.60;;;;;;;;;;5051039;28;20079;-78
2024/02/05 02:39:15;;;;;;;37.07;11.20;;;;;;;;;;5051180;28;20025;-77
2024/02/05 02:41:43;;;;;;;36.75;7.75;;;;;;;;;;5046400;28;20064;-77
2024/02/05 02:44:10;;;;;;;41.83;8.23;;;;;;;;;;5050674;28;20025;-75
2024/02/05 02:46:39;;;;;;;40.22;9.90;;;;;;;;;;5051236;28;20023;-77
2024/02/05 02:49:05;;;;;;;42.05;9.65;;;;;;;;;;5050987;28;20040;-76
2024/02/05 02:51:31;;;;;;;45.00;9.65;;;;;;;;;;5051037;28;20078;-76
2024/02/05 02:53:57;;;;;;;48.05;10.52;;;;;;;;;;5051026;28;20029;-76
2024/02/05 02:56:23;;;;;;;49.78;10.95;;;;;;;;;;5050789;28;20120;-77
2024/02/05 02:58:49;;;;;;;31.27;8.23;;;;;;;;;;5050834;28;20108;-77
2024/02/05 03:01:15;;;;;;;44.60;9.90;;;;;;;;;;5050727;28;20029;-77
2024/02/05 03:03:41;;;;;;;42.63;9.15;;;;;;;;;;5050911;28;20025;-76
2024/02/05 03:06:07;;;;;;;36.40;9.38;;;;;;;;;;5052033;28;20017;-77
2024/02/05 03:08:33;;;;;;;36.72;9.45;;;;;;;;;;5050573;28;20032;-77
2024/02/05 03:10:59;;;;;;;42.97;9.75;;;;;;;;;;5050905;28;20044;-76
2024/02/05 03:13:26;;;;;;;26.65;8.15;;;;;;;;;;5050441;28;20045;-77
2024/02/05 03:15:52;;;;;;;36.65;9.63;;;;;;;;;;5051846;28;20368;-77
2024/02/05 03:18:18;;;;;;;34.15;9.52;;;;;;;;;;5051579;28;20464;-78
2024/02/05 03:20:44;;;;;;;43.88;10.60;;;;;;;;;;5050851;28;20482;-77
2024/02/05 03:23:11;;;;;;;41.40;9.98;;;;;;;;;;5050491;28;20017;-77
2024/02/05 03:25:38;;;;;;;40.53;10.23;;;;;;;;;;5051798;28;20017;-77
2024/02/05 03:28:04;;;;;;;34.92;9.13;;;;;;;;;;5052012;28;20028;-76
2024/02/05 03:30:31;;;;;;;36.15;9.27;;;;;;;;;;5050736;28;20028;-78
2024/02/05 03:32:58;;;;;;;42.45;11.05;;;;;;;;;;5050662;28;20031;-77
2024/02/05 03:35:24;;;;;;;34.15;8.65;;;;;;;;;;5050458;28;20029;-77
2024/02/05 03:37:51;;;;;;;41.90;10.57;;;;;;;;;;5050772;28;20366;-77
2024/02/05 03:40:17;;;;;;;39.03;9.60;;;;;;;;;;5051530;28;20506;-78
2024/02/05 03:42:43;;;;;;;36.53;9.82;;;;;;;;;;5050626;28;20059;-77
2024/02/05 03:45:09;;;;;;;40.65;9.95;;;;;;;;;;5051488;28;20443;-77
2024/02/05 03:47:35;;;;;;;38.65;9.45;;;;;;;;;;5050347;28;20029;-76
2024/02/05 03:50:01;;;;;;;44.00;9.95;;;;;;;;;;5050572;28;20040;-77
2024/02/05 03:52:27;;;;;;;33.83;9.20;;;;;;;;;;5050231;28;20036;-77
2024/02/05 03:54:54;;;;;;;43.65;10.63;;;;;;;;;;5052005;28;20028;-75
2024/02/05 03:57:20;;;;;;;29.20;7.82;;;;;;;;;;5051683;28;20032;-77
2024/02/05 03:59:46;;;;;;;33.47;9.10;;;;;;;;;;5050524;28;20029;-77
2024/02/05 04:02:12;;;;;;;36.10;7.43;;;;;;;;;;5050392;28;20017;-78
2024/02/05 04:04:39;;;;;;;32.33;9.13;;;;;;;;;;5051630;28;20025;-77
2024/02/05 04:07:06;;;;;;;43.72;9.75;;;;;;;;;;5050131;28;20029;-77
2024/02/05 04:09:32;;;;;;;33.53;10.00;;;;;;;;;;5050329;28;20052;-77
2024/02/05 04:11:58;;;;;;;35.22;10.27;;;;;;;;;;5050105;28;20052;-77
2024/02/05 04:14:24;;;;;;;45.28;10.73;;;;;;;;;;5049920;28;20091;-78
2024/02/05 04:16:50;;;;;;;35.00;11.27;;;;;;;;;;5050235;28;20037;-77
2024/02/05 04:19:17;;;;;;;37.00;9.05;;;;;;;;;;5050736;28;20044;-77
2024/02/05 04:21:43;;;;;;;38.95;10.95;;;;;;;;;;5053907;28;20032;-78
2024/02/05 04:24:09;;;;;;;39.40;11.00;;;;;;;;;;5053529;28;20025;-78
2024/02/05 04:26:35;;;;;;;37.45;10.35;;;;;;;;;;5053839;28;20025;-78
2024/02/05 04:29:01;;;;;;;40.67;10.05;;;;;;;;;;5053760;28;20037;-77
2024/02/05 04:31:27;;;;;;;42.70;9.80;;;;;;;;;;5053241;28;20017;-78
2024/02/05 04:33:54;;;;;;;47.53;10.65;;;;;;;;;;5053584;28;20036;-77
2024/02/05 04:36:20;;;;;;;39.55;11.32;;;;;;;;;;5054664;28;20017;-78
2024/02/05 04:38:46;;;;;;;43.72;10.48;;;;;;;;;;5053509;28;20112;-78
2024/02/05 04:41:13;;;;;;;32.75;9.63;;;;;;;;;;5055361;28;20053;-76
2024/02/05 04:43:40;;;;;;;37.35;10.25;;;;;;;;;;5053406;28;20033;-77
2024/02/05 04:46:10;;;;;;;41.53;9.60;;;;;;;;;;5053438;28;20062;-77
2024/02/05 04:48:36;;;;;;;39.95;10.32;;;;;;;;;;5054728;28;20100;-77
2024/02/05 04:51:02;;;;;;;48.70;11.52;;;;;;;;;;5053048;28;20028;-78
2024/02/05 04:53:28;;;;;;;39.15;8.70;;;;;;;;;;5054307;28;20025;-76
2024/02/05 04:55:54;;;;;;;30.33;9.30;;;;;;;;;;5053152;28;20495;-75
2024/02/05 04:58:20;;;;;;;36.70;9.57;;;;;;;;;;5052986;28;20087;-76
2024/02/05 05:00:49;;;;;;;35.60;8.88;;;;;;;;;;5053063;28;20116;-76
2024/02/05 05:03:15;;;;;;;27.25;8.45;;;;;;;;;;5052755;28;20037;-75
2024/02/05 05:05:42;;;;;;;44.22;10.50;;;;;;;;;;5053064;28;20021;-75
2024/02/05 05:08:08;;;;;;;39.65;9.27;;;;;;;;;;5052999;28;20021;-75
2024/02/05 05:10:34;;;;;;;39.05;8.73;;;;;;;;;;5052878;28;20120;-78
2024/02/05 05:13:03;;;;;;;34.70;7.95;;;;;;;;;;5052585;28;20080;-78
2024/02/05 05:15:29;;;;;;;34.10;9.18;;;;;;;;;;5052655;28;20025;-78
2024/02/05 05:17:55;;;;;;;36.90;8.45;;;;;;;;;;5052770;28;20112;-77
2024/02/05 05:20:21;;;;;;;38.03;9.00;;;;;;;;;;5052462;28;20116;-77
2024/02/05 05:22:47;;;;;;;31.95;8.50;;;;;;;;;;5052599;28;20516;-77
2024/02/05 05:25:13;;;;;;;33.28;8.75;;;;;;;;;;5052408;28;20063;-76
2024/02/05 05:27:39;;;;;;;34.22;8.98;;;;;;;;;;5052590;28;20025;-77
2024/02/05 05:30:06;;;;;;;39.63;9.35;;;;;;;;;;5052010;28;20060;-76
2024/02/05 05:32:32;;;;;;;36.88;8.15;;;;;;;;;;5052461;28;20402;-77
2024/02/05 05:34:58;;;;;;;39.28;10.00;;;;;;;;;;5052510;28;20491;-77
2024/02/05 05:37:25;;;;;;;38.30;8.13;;;;;;;;;;5053522;28;20055;-78
2024/02/05 05:39:52;;;;;;;42.58;9.40;;;;;;;;;;5053354;28;20036;-78
2024/02/05 05:42:18;;;;;;;32.28;7.30;;;;;;;;;;5052133;28;20021;-77
2024/02/05 05:44:44;;;;;;;25.52;7.55;;;;;;;;;;5052170;28;20029;-77
2024/02/05 05:47:10;;;;;;;42.83;9.20;;;;;;;;;;5052239;28;20040;-77
2024/02/05 05:49:36;;;;;;;34.08;8.60;;;;;;;;;;5052082;28;20044;-77
2024/02/05 05:52:02;;;;;;;29.90;7.55;;;;;;;;;;5052168;28;20465;-78
2024/02/05 05:54:30;;;;;;;30.23;7.40;;;;;;;;;;5051504;28;20112;-77
2024/02/05 05:56:57;;;;;;;28.95;6.03;;;;;;;;;;5052203;28;20025;-79
2024/02/05 05:59:23;;;;;;;24.58;6.93;;;;;;;;;;5051723;28;20492;-77
2024/02/05 06:01:49;;;;;;;31.17;6.38;;;;;;;;;;5053761;28;20480;-76
2024/02/05 06:04:15;;;;;;;31.10;7.32;;;;;;;;;;5051634;28;20029;-77
2024/02/05 06:06:41;;;;;;;35.42;9.07;;;;;;;;;;5051986;28;20029;-78
2024/02/05 06:09:08;;;;;;;29.27;7.07;;;;;;;;;;5052430;28;20017;-77
2024/02/05 06:11:34;;;;;;;30.88;7.72;;;;;;;;;;5051596;28;20021;-78
2024/02/05 06:14:00;;;;;;;35.30;8.50;;;;;;;;;;5051939;28;20032;-78
2024/02/05 06:16:28;;;;;;;38.28;7.78;;;;;;;;;;5051711;28;20119;-77
2024/02/05 06:18:54;;;;;;;30.75;9.23;;;;;;;;;;5053169;28;20104;-76
2024/02/05 06:21:20;;;;;;;35.50;8.68;;;;;;;;;;5051310;28;20025;-79
2024/02/05 06:23:46;;;;;;;28.70;8.18;;;;;;;;;;5052425;28;20526;-81
2024/02/05 06:26:12;;;;;;;25.67;6.53;;;;;;;;;;5051284;28;20047;-82
2024/02/05 06:28:39;;;;;;;31.08;7.45;;;;;;;;;;5051557;28;20598;-81
2024/02/05 06:31:05;;;;;;;30.33;7.53;;;;;;;;;;5053111;28;20027;-80
2024/02/05 06:33:32;;;;;;;32.47;8.60;;;;;;;;;;5051176;28;20029;-81
2024/02/05 06:35:58;;;;;;;33.35;8.40;;;;;;;;;;5051349;28;20025;-80
2024/02/05 06:38:24;;;;;;;23.83;6.93;;;;;;;;;;5051358;28;20029;-80
2024/02/05 06:40:51;;;;;;;45.38;10.68;;;;;;;;;;5051308;28;20056;-81
2024/02/05 06:43:17;;;;;;;32.80;7.88;;;;;;;;;;5050553;28;20381;-82
2024/02/05 06:45:43;;;;;;;27.30;7.63;;;;;;;;;;5051235;28;20025;-80
2024/02/05 06:48:09;;;;;;;34.20;9.52;;;;;;;;;;5051277;28;20025;-80
2024/02/05 06:50:35;;;;;;;31.23;7.97;;;;;;;;;;5050865;28;20021;-79
2024/02/05 06:53:02;;;;;;;34.22;7.28;;;;;;;;;;5051122;28;20464;-80
2024/02/05 06:55:30;;;;;;;34.05;8.07;;;;;;;;;;5050765;28;20021;-80
2024/02/05 06:57:56;;;;;;;32.95;7.90;;;;;;;;;;5051228;28;20484;-81
2024/02/05 07:00:22;;;;;;;34.97;9.10;;;;;;;;;;5050648;28;20602;-81
2024/02/05 07:02:50;;;;;;;37.67;9.00;;;;;;;;;;5052367;28;20105;-79
2024/02/05 07:05:16;;;;;;;38.55;8.15;;;;;;;;;;5050604;28;20092;-79
2024/02/05 07:07:42;;;;;;;31.98;6.65;;;;;;;;;;5050989;28;20025;-80
2024/02/05 07:10:08;;;;;;;32.58;8.40;;;;;;;;;;5051026;28;20059;-80
2024/02/05 07:12:34;;;;;;;40.63;8.40;;;;;;;;;;5050178;28;20505;-80
2024/02/05 07:15:00;;;;;;;36.97;8.40;;;;;;;;;;5050783;28;20023;-80
2024/02/05 07:17:31;;;;;;;34.65;8.40;;;;;;;;;;5050473;28;20021;-79
2024/02/05 07:20:01;;;;;;;35.22;8.73;;;;;;;;;;5050607;28;20032;-79
2024/02/05 07:22:30;;;;;;;32.70;7.63;;;;;;;;;;5050484;28;20021;-80
2024/02/05 07:24:56;;;;;;;26.90;7.80;;;;;;;;;;5050413;28;20028;-79
2024/02/05 07:27:26;;;;;;;29.33;7.15;;;;;;;;;;5050615;28;20190;-80
2024/02/05 07:29:52;;;;;;;34.80;7.70;;;;;;;;;;5050846;28;20538;-80
2024/02/05 07:32:19;;;;;;;37.15;9.70;;;;;;;;;;5052236;28;20028;-80
2024/02/05 07:34:48;;;;;;;31.42;8.65;;;;;;;;;;5052362;28;20025;-79
2024/02/05 07:37:14;;;;;;;30.05;7.60;;;;;;;;;;5051007;28;20318;-80
2024/02/05 07:39:40;;;;;;;25.30;7.35;;;;;;;;;;5050429;28;20393;-81
2024/02/05 07:42:07;;;;;;;37.63;8.15;;;;;;;;;;5050488;28;20040;-81
2024/02/05 07:44:33;;;;;;;30.63;8.52;;;;;;;;;;5050825;28;20021;-80
2024/02/05 07:46:59;;;;;;;32.15;8.15;;;;;;;;;;5051964;28;20135;-78
2024/02/05 07:49:26;;;;;;;37.40;7.25;;;;;;;;;;5050296;28;20051;-80
2024/02/05 07:51:52;;;;;;;37.22;10.13;;;;;;;;;;5050645;28;20064;-79
2024/02/05 07:54:19;;;;;;;31.90;8.73;;;;;;;;;;5052983;28;20024;-79
2024/02/05 07:56:45;;;;;;;35.95;9.25;;;;;;;;;;5054454;28;20124;-80
2024/02/05 07:59:12;;;;;;;36.95;10.48;;;;;;;;;;5054255;28;20029;-80
2024/02/05 08:01:38;;;;;;;38.30;9.25;;;;;;;;;;5054180;28;20025;-80
2024/02/05 08:04:05;;;;;;;30.50;8.63;;;;;;;;;;5055770;28;20036;-80
2024/02/05 08:06:32;;;;;;;33.00;8.32;;;;;;;;;;5053978;28;20407;-79
2024/02/05 08:08:58;;;;;;;36.20;9.63;;;;;;;;;;5054250;28;20054;-80
2024/02/05 08:11:24;;;;;;;41.15;9.85;;;;;;;;;;5054195;28;20032;-80
2024/02/05 08:13:54;;;;;;;41.53;10.27;;;;;;;;;;5054258;28;20523;-80
2024/02/05 08:16:20;;;;;;;39.83;8.77;;;;;;;;;;5054115;28;20044;-81
2024/02/05 08:18:46;;;;;;;33.08;8.43;;;;;;;;;;5054588;28;20033;-79
2024/02/05 08:21:12;;;;;;;35.20;8.95;;;;;;;;;;5054725;28;20128;-80
2024/02/05 08:23:39;;;;;;;36.22;8.63;;;;;;;;;;5056007;28;20029;-80
2024/02/05 08:26:05;;;;;;;38.10;8.30;;;;;;;;;;5055493;28;20021;-80
2024/02/05 08:28:31;;;;;;;30.88;9.02;;;;;;;;;;5054017;28;20017;-80
2024/02/05 08:30:57;;;;;;;29.65;8.25;;;;;;;;;;5053993;28;20376;-79
2024/02/05 08:33:23;;;;;;;38.47;8.38;;;;;;;;;;5053635;28;20017;-79
2024/02/05 08:35:50;;;;;;;41.20;8.93;;;;;;;;;;5053671;28;20021;-80
2024/02/05 08:38:16;;;;;;;34.90;8.57;;;;;;;;;;5054919;28;20372;-79
2024/02/05 08:40:43;;;;;;;22.38;5.88;;;;;;;;;;5053375;28;20111;-80
2024/02/05 08:43:09;;;;;;;28.55;6.75;;;;;;;;;;5053105;28;20044;-80
2024/02/05 08:45:36;;;;;;;32.40;8.32;;;;;;;;;;5053379;28;20033;-78
2024/02/05 08:48:02;;;;;;;29.08;6.90;;;;;;;;;;5054799;28;20028;-82
2024/02/05 08:50:33;;;;;;;34.97;8.25;;;;;;;;;;5053260;28;20037;-79
2024/02/05 08:53:00;;;;;;;42.35;9.43;;;;;;;;;;5053457;28;20025;-80
2024/02/05 08:55:26;;;;;;;33.03;8.98;;;;;;;;;;5054377;28;20108;-79
2024/02/05 08:57:52;;;;;;;32.63;9.85;;;;;;;;;;5053260;28;20086;-79
2024/02/05 09:00:19;;;;;;;35.20;9.13;;;;;;;;;;5053165;28;20396;-79
2024/02/05 09:02:45;;;;;;;31.63;7.70;;;;;;;;;;5054188;28;20552;-80
2024/02/05 09:05:12;;;;;;;21.25;6.43;;;;;;;;;;5052586;28;20032;-79
2024/02/05 09:07:38;;;;;;;28.75;7.50;;;;;;;;;;5052905;28;20029;-81
2024/02/05 09:10:07;;;;;;;38.05;9.95;;;;;;;;;;5054609;28;20431;-82
2024/02/05 09:12:33;;;;;;;36.45;10.38;;;;;;;;;;5052830;28;20560;-83
2024/02/05 09:15:00;;;;;;;33.05;8.95;;;;;;;;;;5053045;28;20021;-83
2024/02/05 09:17:26;;;;;;;33.28;10.98;;;;;;;;;;5052653;28;20033;-83
2024/02/05 09:19:52;;;;;;;37.67;10.65;;;;;;;;;;5052771;28;20039;-82
2024/02/05 09:22:18;;;;;;;39.55;12.93;;;;;;;;;;5053005;28;20025;-82
2024/02/05 09:24:45;;;;;;;39.50;14.32;;;;;;;;;;5052640;28;20063;-83
2024/02/05 09:27:11;;;;;;;41.00;13.10;;;;;;;;;;5053101;28;20025;-82
2024/02/05 09:29:37;;;;;;;33.15;13.73;;;;;;;;;;5052674;28;20029;-82
2024/02/05 09:32:05;;;;;;;35.58;16.90;;;;;;;;;;5052841;28;20032;-82
2024/02/05 09:34:31;;;;;;;38.30;14.95;;;;;;;;;;5053887;28;20025;-82
2024/02/05 09:36:57;;;;;;;36.38;11.93;;;;;;;;;;5052812;28;20029;-83
2024/02/05 09:39:23;;;;;;;42.05;15.23;;;;;;;;;;5052477;28;20021;-83
2024/02/05 09:41:50;;;;;;;41.22;14.07;;;;;;;;;;5052746;28;20036;-84
2024/02/05 09:44:17;;;;;;;30.45;12.05;;;;;;;;;;5052575;28;20021;-83
2024/02/05 09:46:45;;;;;;;34.30;13.38;;;;;;;;;;5053838;28;20480;-83
2024/02/05 09:49:12;;;;;;;36.88;13.05;;;;;;;;;;5052576;28;20429;-82
2024/02/05 09:51:38;;;;;;;39.60;15.45;;;;;;;;;;5052347;28;20380;-82
2024/02/05 09:54:04;;;;;;;27.20;10.10;;;;;;;;;;5052510;28;20021;-82
2024/02/05 09:56:31;;;;;;;36.42;11.82;;;;;;;;;;5053410;28;20388;-83
2024/02/05 09:58:57;;;;;;;35.50;11.57;;;;;;;;;;5052311;28;20025;-82
2024/02/05 10:01:27;;;;;;;29.27;10.45;;;;;;;;;;5053581;28;20090;-83
2024/02/05 10:03:57;;;;;;;32.53;11.00;;;;;;;;;;5052054;28;20446;-82
2024/02/05 10:06:23;;;;;;;;;;;;;;;;;;5052535;28;20452;-83
2024/02/05 10:08:59;;;;;;;36.03;12.30;;;;;;;;;;5052014;28;19936;-82
2024/02/05 10:11:26;;;;;;;28.45;9.55;;;;;;;;;;5051755;28;20500;-82
2024/02/05 10:13:52;;;;;;;28.88;10.00;;;;;;;;;;5051931;28;20037;-82
2024/02/05 10:16:18;;;;;;;30.65;9.07;;;;;;;;;;5051688;28;20036;-82
2024/02/05 10:18:44;;;;;;;33.67;9.00;;;;;;;;;;5051268;28;20495;-82
2024/02/05 10:21:10;;;;;;;33.15;9.20;;;;;;;;;;5051919;28;20431;-82
2024/02/05 10:23:36;;;;;;;29.08;9.27;;;;;;;;;;5051457;28;20021;-81
2024/02/05 10:26:03;;;;;;;24.92;7.30;;;;;;;;;;5053605;28;20025;-81
2024/02/05 10:28:29;;;;;;;24.88;8.52;;;;;;;;;;5051603;28;20527;-81
2024/02/05 10:31:10;;;;;;;40.17;11.35;;;;;;;;;;5052138;28;20035;-81
2024/02/05 10:33:37;;;;;;;29.88;10.50;;;;;;;;;;5052103;28;20060;-81
2024/02/05 10:36:03;;;;;;;31.60;7.93;;;;;;;;;;5053625;28;20028;-81
2024/02/05 10:38:29;;;;;;;31.42;9.00;;;;;;;;;;5051402;28;20039;-82
2024/02/05 10:40:55;;;;;;;38.67;10.30;;;;;;;;;;5053060;28;20352;-83
2024/02/05 10:43:21;;;;;;;29.98;7.97;;;;;;;;;;5056926;28;20024;-82
2024/02/05 10:45:47;;;;;;;32.45;8.18;;;;;;;;;;5054216;28;20573;-82
2024/02/05 10:48:13;;;;;;;40.13;9.45;;;;;;;;;;5051945;28;20028;-81
2024/02/05 10:50:39;;;;;;;30.90;7.45;;;;;;;;;;5051302;28;20029;-83
2024/02/05 10:53:05;;;;;;;28.17;8.57;;;;;;;;;;5051361;28;20025;-82
2024/02/05 10:55:32;;;;;;;24.75;6.70;;;;;;;;;;5050953;28;20024;-83
2024/02/05 10:58:01;;;;;;;29.75;8.07;;;;;;;;;;5050907;28;20025;-82
2024/02/05 11:00:27;;;;;;;32.40;8.60;;;;;;;;;;5050909;28;20029;-87
2024/02/05 11:03:01;;;;;;;30.25;9.02;;;;;;;;;;5051180;28;20040;-83
2024/02/05 11:05:27;;;;;;;29.30;7.10;;;;;;;;;;5051040;28;20025;-84
2024/02/05 11:07:57;;;;;;;31.27;8.15;;;;;;;;;;5051301;28;20059;-84
2024/02/05 11:10:24;;;;;;;33.92;7.75;;;;;;;;;;5051253;28;20052;-82
2024/02/05 11:12:55;;;;;;;27.48;6.88;;;;;;;;;;5052221;28;20073;-85
2024/02/05 11:15:22;;;;;;;32.97;7.95;;;;;;;;;;5051046;28;20017;-83
2024/02/05 11:17:49;;;;;;;30.58;7.85;;;;;;;;;;5052167;28;20021;-84
2024/02/05 11:20:15;;;;;;;29.77;8.15;;;;;;;;;;5050901;28;20374;-84
2024/02/05 11:22:43;;;;;;;26.25;7.13;;;;;;;;;;5050832;28;20083;-82
2024/02/05 11:25:09;;;;;;;35.75;7.63;;;;;;;;;;5050745;28;20017;-82
2024/02/05 11:27:36;;;;;;;30.90;7.97;;;;;;;;;;5050743;28;20033;-83
2024/02/05 11:30:03;;;;;;;38.47;8.75;;;;;;;;;;5055350;28;20040;-82
2024/02/05 11:32:39;;;;;;;29.45;8.23;;;;;;;;;;5054820;28;20021;-81
2024/02/05 11:35:12;;;;;;;31.42;8.20;;;;;;;;;;5055094;28;20036;-83
2024/02/05 11:37:39;;;;;;;31.38;7.32;;;;;;;;;;5055112;28;20061;-83
2024/02/05 11:40:05;;;;;;;34.25;7.93;;;;;;;;;;5055999;28;20095;-82
2024/02/05 11:42:31;;;;;;;29.73;6.85;;;;;;;;;;5054624;28;20029;-82
2024/02/05 11:44:59;;;;;;;31.02;7.43;;;;;;;;;;5054456;28;20032;-83
2024/02/05 11:47:25;;;;;;;31.63;7.88;;;;;;;;;;5055003;28;20092;-84
2024/02/05 11:49:53;;;;;;;32.03;8.35;;;;;;;;;;5054642;28;20040;-81
2024/02/05 11:52:19;;;;;;;36.17;8.18;;;;;;;;;;5054693;28;20025;-83
2024/02/05 11:54:46;;;;;;;36.97;8.43;;;;;;;;;;5054426;28;20070;-81
2024/02/05 11:57:12;;;;;;;28.50;7.32;;;;;;;;;;5054352;28;20021;-83
2024/02/05 11:59:38;;;;;;;24.55;7.60;;;;;;;;;;5056431;28;20029;-82
2024/02/05 12:02:06;;;;;;;36.17;9.18;;;;;;;;;;5054528;28;20036;-82
2024/02/05 12:04:32;;;;;;;31.70;7.78;;;;;;;;;;5055246;28;20017;-82
2024/02/05 12:06:58;;;;;;;33.17;7.63;;;;;;;;;;5055530;28;20227;-82
2024/02/05 12:09:24;;;;;;;30.58;8.57;;;;;;;;;;5054390;28;20040;-81
2024/02/05 12:11:51;;;;;;;37.55;8.63;;;;;;;;;;5053886;28;20064;-82
2024/02/05 12:14:17;;;;;;;29.00;7.75;;;;;;;;;;5054061;28;20087;-83
2024/02/05 12:16:43;;;;;;;34.38;8.10;;;;;;;;;;5053898;28;20487;-83
2024/02/05 12:19:20;;;;;;;25.15;7.30;;;;;;;;;;5053905;28;20112;-80
2024/02/05 12:21:46;;;;;;;32.03;7.90;;;;;;;;;;5054071;28;20082;-82
2024/02/05 12:24:12;;;;;;;28.67;7.93;;;;;;;;;;5054016;28;20020;-81
2024/02/05 12:26:38;;;;;;;22.58;7.30;;;;;;;;;;5053517;28;20025;-81
2024/02/05 12:29:04;;;;;;;23.80;6.15;;;;;;;;;;5055105;28;20023;-81
2024/02/05 12:31:30;;;;;;;23.92;7.38;;;;;;;;;;5053855;28;20140;-77
2024/02/05 12:33:56;;;;;;;39.75;8.77;;;;;;;;;;5053623;28;20475;-77
2024/02/05 12:36:23;;;;;;;30.90;7.47;;;;;;;;;;5053183;28;20361;-77
2024/02/05 12:38:49;;;;;;;33.63;7.82;;;;;;;;;;5054519;28;20029;-77
2024/02/05 12:41:15;;;;;;;31.70;6.97;;;;;;;;;;5052545;28;20428;-78
2024/02/05 12:43:41;;;;;;;29.15;7.63;;;;;;;;;;5053366;28;20114;-77
2024/02/05 12:46:07;;;;;;;28.30;6.72;;;;;;;;;;5053463;28;20017;-77
2024/02/05 12:48:33;;;;;;;33.85;8.57;;;;;;;;;;5053263;28;20494;-78
2024/02/05 12:51:00;;;;;;;30.77;7.72;;;;;;;;;;5053454;28;20036;-79
2024/02/05 12:53:26;;;;;;;25.67;7.63;;;;;;;;;;5054740;28;20036;-77
2024/02/05 12:55:53;;;;;;;28.25;9.45;;;;;;;;;;5053285;28;20032;-77
2024/02/05 12:58:19;;;;;;;25.42;8.07;;;;;;;;;;5054896;28;20025;-77
2024/02/05 13:00:46;;;;;;;27.75;8.10;;;;;;;;;;5053325;28;20035;-77
2024/02/05 13:03:12;;;;;;;32.85;8.30;;;;;;;;;;5067744;28;20028;-77
2024/02/05 13:05:40;;;;;;;33.45;7.70;;;;;;;;;;5074398;28;20033;-77
2024/02/05 13:08:10;;;;;;;35.00;9.00;;;;;;;;;;5073037;28;20376;-77
2024/02/05 13:10:49;;;;;;;34.22;9.10;;;;;;;;;;5072807;28;20034;-78
2024/02/05 13:13:16;;;;;;;33.83;10.25;;;;;;;;;;5072779;28;20045;-78
2024/02/05 13:15:42;;;;;;;31.77;9.90;;;;;;;;;;5072854;28;20448;-78
2024/02/05 13:18:10;;;;;;;28.73;7.40;;;;;;;;;;5072994;28;20017;-78
2024/02/05 13:20:37;;;;;;;28.85;8.63;;;;;;;;;;5072498;28;20029;-77
2024/02/05 13:23:03;;;;;;;24.70;7.90;;;;;;;;;;5073906;28;20487;-77
2024/02/05 13:25:30;;;;;;;24.00;6.65;;;;;;;;;;5073706;28;20024;-79
2024/02/05 13:27:56;;;;;;;25.40;7.03;;;;;;;;;;5072113;28;20021;-78
2024/02/05 13:30:22;;;;;;;27.77;7.60;;;;;;;;;;5072526;28;20020;-78
2024/02/05 13:32:48;;;;;;;31.77;8.40;;;;;;;;;;5073775;28;20107;-78
2024/02/05 13:35:15;;;;;;;28.88;7.72;;;;;;;;;;5072381;28;20028;-79
2024/02/05 13:37:41;;;;;;;33.38;8.52;;;;;;;;;;5073597;28;20028;-78
2024/02/05 13:40:08;;;;;;;32.50;8.32;;;;;;;;;;5071920;28;20352;-77
2024/02/05 13:42:39;;;;;;;23.85;8.15;;;;;;;;;;5073114;28;20100;-78
2024/02/05 13:45:09;;;;;;;29.02;10.05;;;;;;;;;;5073443;28;20028;-79
2024/02/05 13:47:36;;;;;;;33.25;9.52;;;;;;;;;;5071790;28;20024;-77
2024/02/05 13:50:03;;;;;;;29.98;9.82;;;;;;;;;;5072046;28;20035;-79
2024/02/05 13:52:29;;;;;;;30.02;8.40;;;;;;;;;;5072803;28;20029;-78
2024/02/05 13:54:55;;;;;;;24.27;7.47;;;;;;;;;;5071335;28;20476;-79
2024/02/05 13:57:21;;;;;;;23.40;6.75;;;;;;;;;;5072910;28;20032;-78
2024/02/05 13:59:47;;;;;;;31.55;9.57;;;;;;;;;;5072542;28;20035;-78
2024/02/05 14:02:13;;;;;;;25.08;7.68;;;;;;;;;;5071368;28;20024;-79
2024/02/05 14:04:40;;;;;;;24.60;7.57;;;;;;;;;;5071549;28;20025;-78
2024/02/05 14:07:06;;;;;;;29.88;8.60;;;;;;;;;;5071824;28;20032;-78
2024/02/05 14:09:32;;;;;;;26.63;8.85;;;;;;;;;;5070677;28;20025;-79
2024/02/05 14:11:58;;;;;;;25.63;9.02;;;;;;;;;;5053991;28;20102;-79
2024/02/05 14:14:24;;;;;;;26.30;9.77;;;;;;;;;;5051146;28;20067;-79
2024/02/05 14:16:50;;;;;;;29.00;10.45;;;;;;;;;;5067870;28;20025;-80
2024/02/05 14:19:16;;;;;;;30.63;11.07;;;;;;;;;;5052981;28;20025;-79
2024/02/05 14:21:42;;;;;;;24.00;9.68;;;;;;;;;;5067813;28;20029;-78
2024/02/05 14:24:08;;;;;;;33.90;10.90;;;;;;;;;;5067476;28;20025;-79
2024/02/05 14:26:34;;;;;;;30.23;8.60;;;;;;;;;;5052561;28;20025;-79